sensor_id;sensor_type;location;lat;lon;timestamp;pressure;altitude;pressure_sealevel;temperature
79228;BMP280;68658;46.174;11.254;2023-06-01T00:01:51;92859.41;;;13.64
79228;BMP280;68658;46.174;11.254;2023-06-01T00:04:17;92861.53;;;13.65
79228;BMP280;68658;46.174;11.254;2023-06-01T00:06:43;92859.81;;;13.68
79228;BMP280;68658;46.174;11.254;2023-06-01T00:09:09;92857.94;;;13.63
79228;BMP280;68658;46.174;11.254;2023-06-01T00:11:34;92860.38;;;13.61
79228;BMP280;68658;46.174;11.254;2023-06-01T00:14:00;92870.97;;;13.61
79228;BMP280;68658;46.174;11.254;2023-06-01T00:16:25;92863.63;;;13.48
79228;BMP280;68658;46.174;11.254;2023-06-01T00:18:51;92861.25;;;13.45
79228;BMP280;68658;46.174;11.254;2023-06-01T00:21:18;92864.97;;;13.31
79228;BMP280;68658;46.174;11.254;2023-06-01T00:23:44;92858.00;;;13.28
79228;BMP280;68658;46.174;11.254;2023-06-01T00:26:10;92853.41;;;13.34
79228;BMP280;68658;46.174;11.254;2023-06-01T00:28:35;92858.47;;;13.32
79228;BMP280;68658;46.174;11.254;2023-06-01T00:31:00;92861.13;;;13.32
79228;BMP280;68658;46.174;11.254;2023-06-01T00:33:26;92861.13;;;13.32
79228;BMP280;68658;46.174;11.254;2023-06-01T00:35:52;92853.25;;;13.21
79228;BMP280;68658;46.174;11.254;2023-06-01T00:38:17;92857.06;;;13.25
79228;BMP280;68658;46.174;11.254;2023-06-01T00:40:43;92853.97;;;13.21
79228;BMP280;68658;46.174;11.254;2023-06-01T00:43:09;92844.88;;;13.17
79228;BMP280;68658;46.174;11.254;2023-06-01T00:45:35;92853.78;;;13.14
79228;BMP280;68658;46.174;11.254;2023-06-01T00:48:06;92844.34;;;13.18
79228;BMP280;68658;46.174;11.254;2023-06-01T00:50:32;92852.50;;;13.26
79228;BMP280;68658;46.174;11.254;2023-06-01T00:52:59;92848.66;;;13.27
79228;BMP280;68658;46.174;11.254;2023-06-01T00:55:26;92853.94;;;13.27
79228;BMP280;68658;46.174;11.254;2023-06-01T00:57:52;92846.69;;;13.27
79228;BMP280;68658;46.174;11.254;2023-06-01T01:00:18;92849.13;;;13.25
79228;BMP280;68658;46.174;11.254;2023-06-01T01:02:44;92845.03;;;13.24
79228;BMP280;68658;46.174;11.254;2023-06-01T01:05:10;92849.38;;;13.22
79228;BMP280;68658;46.174;11.254;2023-06-01T01:07:51;92844.63;;;13.15
79228;BMP280;68658;46.174;11.254;2023-06-01T01:10:33;92847.78;;;13.13
79228;BMP280;68658;46.174;11.254;2023-06-01T01:15:32;92843.19;;;13.14
79228;BMP280;68658;46.174;11.254;2023-06-01T01:18:06;92847.38;;;13.04
79228;BMP280;68658;46.174;11.254;2023-06-01T01:20:41;92850.25;;;13.06
79228;BMP280;68658;46.174;11.254;2023-06-01T01:26:18;92844.91;;;13.12
79228;BMP280;68658;46.174;11.254;2023-06-01T01:29:00;92851.41;;;13.11
79228;BMP280;68658;46.174;11.254;2023-06-01T01:31:28;92852.34;;;13.13
79228;BMP280;68658;46.174;11.254;2023-06-01T01:33:56;92847.81;;;13.08
79228;BMP280;68658;46.174;11.254;2023-06-01T01:36:23;92847.13;;;13.08
79228;BMP280;68658;46.174;11.254;2023-06-01T01:38:48;92844.28;;;13.00
79228;BMP280;68658;46.174;11.254;2023-06-01T01:41:14;92855.13;;;12.97
79228;BMP280;68658;46.174;11.254;2023-06-01T01:43:39;92845.81;;;12.90
79228;BMP280;68658;46.174;11.254;2023-06-01T01:46:11;92842.41;;;12.90
79228;BMP280;68658;46.174;11.254;2023-06-01T01:51:20;92848.78;;;12.70
79228;BMP280;68658;46.174;11.254;2023-06-01T01:53:48;92851.91;;;12.74
79228;BMP280;68658;46.174;11.254;2023-06-01T01:56:18;92851.63;;;12.78
79228;BMP280;68658;46.174;11.254;2023-06-01T01:58:45;92843.72;;;12.72
79228;BMP280;68658;46.174;11.254;2023-06-01T02:01:12;92844.44;;;12.73
79228;BMP280;68658;46.174;11.254;2023-06-01T02:03:38;92847.56;;;12.71
79228;BMP280;68658;46.174;11.254;2023-06-01T02:06:04;92851.19;;;12.68
79228;BMP280;68658;46.174;11.254;2023-06-01T02:08:29;92850.75;;;12.64
79228;BMP280;68658;46.174;11.254;2023-06-01T02:10:55;92849.91;;;12.45
79228;BMP280;68658;46.174;11.254;2023-06-01T02:13:20;92841.91;;;12.51
79228;BMP280;68658;46.174;11.254;2023-06-01T02:18:18;92848.34;;;12.66
79228;BMP280;68658;46.174;11.254;2023-06-01T02:20:45;92843.72;;;12.72
79228;BMP280;68658;46.174;11.254;2023-06-01T02:23:10;92843.72;;;12.72
79228;BMP280;68658;46.174;11.254;2023-06-01T02:25:36;92848.03;;;12.75
79228;BMP280;68658;46.174;11.254;2023-06-01T02:28:01;92842.50;;;12.73
79228;BMP280;68658;46.174;11.254;2023-06-01T02:30:27;92835.28;;;12.74
79228;BMP280;68658;46.174;11.254;2023-06-01T02:32:55;92841.09;;;12.67
79228;BMP280;68658;46.174;11.254;2023-06-01T02:35:21;92834.38;;;12.66
79228;BMP280;68658;46.174;11.254;2023-06-01T02:37:46;92834.19;;;12.58
79228;BMP280;68658;46.174;11.254;2023-06-01T02:40:12;92838.88;;;12.36
79228;BMP280;68658;46.174;11.254;2023-06-01T02:42:38;92833.50;;;12.07
79228;BMP280;68658;46.174;11.254;2023-06-01T02:45:05;92829.91;;;12.04
79228;BMP280;68658;46.174;11.254;2023-06-01T02:47:31;92838.03;;;12.12
79228;BMP280;68658;46.174;11.254;2023-06-01T02:49:57;92835.38;;;12.17
79228;BMP280;68658;46.174;11.254;2023-06-01T02:52:22;92835.88;;;12.16
79228;BMP280;68658;46.174;11.254;2023-06-01T02:54:48;92832.19;;;12.30
79228;BMP280;68658;46.174;11.254;2023-06-01T02:57:13;92827.63;;;12.25
79228;BMP280;68658;46.174;11.254;2023-06-01T02:59:39;92828.63;;;12.22
79228;BMP280;68658;46.174;11.254;2023-06-01T03:02:04;92824.78;;;12.23
79228;BMP280;68658;46.174;11.254;2023-06-01T03:04:30;92826.00;;;12.16
79228;BMP280;68658;46.174;11.254;2023-06-01T03:06:58;92829.94;;;11.88
79228;BMP280;68658;46.174;11.254;2023-06-01T03:09:24;92835.28;;;11.77
79228;BMP280;68658;46.174;11.254;2023-06-01T03:11:50;92825.88;;;11.87
79228;BMP280;68658;46.174;11.254;2023-06-01T03:14:18;92821.06;;;11.91
79228;BMP280;68658;46.174;11.254;2023-06-01T03:16:44;92822.91;;;12.07
79228;BMP280;68658;46.174;11.254;2023-06-01T03:19:09;92820.28;;;12.07
79228;BMP280;68658;46.174;11.254;2023-06-01T03:21:35;92820.69;;;12.16
79228;BMP280;68658;46.174;11.254;2023-06-01T03:24:03;92824.78;;;12.23
79228;BMP280;68658;46.174;11.254;2023-06-01T03:26:28;92814.72;;;12.10
79228;BMP280;68658;46.174;11.254;2023-06-01T03:28:57;92820.69;;;12.16
79228;BMP280;68658;46.174;11.254;2023-06-01T03:31:22;92818.47;;;12.26
79228;BMP280;68658;46.174;11.254;2023-06-01T03:33:48;92821.38;;;12.28
79228;BMP280;68658;46.174;11.254;2023-06-01T03:36:13;92816.31;;;12.30
79228;BMP280;68658;46.174;11.254;2023-06-01T03:38:39;92829.81;;;12.26
79228;BMP280;68658;46.174;11.254;2023-06-01T03:41:06;92829.06;;;12.26
79228;BMP280;68658;46.174;11.254;2023-06-01T03:43:32;92833.22;;;12.16
79228;BMP280;68658;46.174;11.254;2023-06-01T03:45:57;92826.00;;;12.16
79228;BMP280;68658;46.174;11.254;2023-06-01T03:48:22;92835.28;;;11.77
79228;BMP280;68658;46.174;11.254;2023-06-01T03:50:48;92835.47;;;11.90
79228;BMP280;68658;46.174;11.254;2023-06-01T03:53:13;92843.94;;;11.77
79228;BMP280;68658;46.174;11.254;2023-06-01T03:55:39;92834.13;;;11.45
79228;BMP280;68658;46.174;11.254;2023-06-01T03:58:05;92828.38;;;11.63
79228;BMP280;68658;46.174;11.254;2023-06-01T04:00:32;92837.69;;;11.80
79228;BMP280;68658;46.174;11.254;2023-06-01T04:02:58;92842.97;;;11.75
79228;BMP280;68658;46.174;11.254;2023-06-01T04:05:26;92840.84;;;11.68
79228;BMP280;68658;46.174;11.254;2023-06-01T04:07:54;92835.25;;;11.88
79228;BMP280;68658;46.174;11.254;2023-06-01T04:10:20;92828.41;;;12.09
79228;BMP280;68658;46.174;11.254;2023-06-01T04:12:47;92832.00;;;12.17
79228;BMP280;68658;46.174;11.254;2023-06-01T04:15:15;92838.03;;;12.12
79228;BMP280;68658;46.174;11.254;2023-06-01T04:17:44;92837.38;;;11.95
79228;BMP280;68658;46.174;11.254;2023-06-01T04:20:14;92831.66;;;11.80
79228;BMP280;68658;46.174;11.254;2023-06-01T04:22:41;92837.38;;;11.95
79228;BMP280;68658;46.174;11.254;2023-06-01T04:25:09;92838.44;;;11.70
79228;BMP280;68658;46.174;11.254;2023-06-01T04:27:35;92835.69;;;11.97
79228;BMP280;68658;46.174;11.254;2023-06-01T04:30:09;92831.84;;;11.98
79228;BMP280;68658;46.174;11.254;2023-06-01T04:32:36;92830.63;;;12.05
79228;BMP280;68658;46.174;11.254;2023-06-01T04:35:04;92822.50;;;11.86
79228;BMP280;68658;46.174;11.254;2023-06-01T04:37:36;92832.84;;;11.90
79228;BMP280;68658;46.174;11.254;2023-06-01T04:40:07;92820.31;;;11.96
79228;BMP280;68658;46.174;11.254;2023-06-01T04:42:38;92816.88;;;12.06
79228;BMP280;68658;46.174;11.254;2023-06-01T04:45:05;92812.34;;;12.07
79228;BMP280;68658;46.174;11.254;2023-06-01T04:47:33;92816.59;;;12.21
79228;BMP280;68658;46.174;11.254;2023-06-01T04:50:05;92819.16;;;12.32
79228;BMP280;68658;46.174;11.254;2023-06-01T04:52:31;92824.03;;;12.22
79228;BMP280;68658;46.174;11.254;2023-06-01T04:54:56;92812.78;;;12.11
79228;BMP280;68658;46.174;11.254;2023-06-01T04:57:22;92819.78;;;12.03
79228;BMP280;68658;46.174;11.254;2023-06-01T04:59:48;92815.91;;;12.15
79228;BMP280;68658;46.174;11.254;2023-06-01T05:02:14;92820.41;;;12.31
79228;BMP280;68658;46.174;11.254;2023-06-01T05:04:39;92816.78;;;12.28
79228;BMP280;68658;46.174;11.254;2023-06-01T05:07:05;92821.66;;;12.19
79228;BMP280;68658;46.174;11.254;2023-06-01T05:09:34;92813.00;;;12.18
79228;BMP280;68658;46.174;11.254;2023-06-01T05:11:59;92815.81;;;12.31
79228;BMP280;68658;46.174;11.254;2023-06-01T05:14:25;92809.81;;;12.31
79228;BMP280;68658;46.174;11.254;2023-06-01T05:16:50;92816.72;;;12.44
79228;BMP280;68658;46.174;11.254;2023-06-01T05:19:16;92809.75;;;12.36
79228;BMP280;68658;46.174;11.254;2023-06-01T05:21:44;92814.19;;;12.23
79228;BMP280;68658;46.174;11.254;2023-06-01T05:24:09;92803.78;;;12.30
79228;BMP280;68658;46.174;11.254;2023-06-01T05:26:35;92813.69;;;12.24
79228;BMP280;68658;46.174;11.254;2023-06-01T05:29:00;92817.56;;;12.12
79228;BMP280;68658;46.174;11.254;2023-06-01T05:31:26;92821.19;;;12.15
79228;BMP280;68658;46.174;11.254;2023-06-01T05:33:54;92816.59;;;12.21
79228;BMP280;68658;46.174;11.254;2023-06-01T05:36:20;92823.78;;;12.26
79228;BMP280;68658;46.174;11.254;2023-06-01T05:38:46;92816.63;;;12.10
79228;BMP280;68658;46.174;11.254;2023-06-01T05:41:11;92817.78;;;12.20
79228;BMP280;68658;46.174;11.254;2023-06-01T05:43:37;92807.63;;;12.34
79228;BMP280;68658;46.174;11.254;2023-06-01T05:46:02;92812.63;;;12.43
79228;BMP280;68658;46.174;11.254;2023-06-01T05:48:28;92816.13;;;12.57
79228;BMP280;68658;46.174;11.254;2023-06-01T05:50:54;92806.19;;;12.68
79228;BMP280;68658;46.174;11.254;2023-06-01T05:53:19;92802.25;;;12.80
79228;BMP280;68658;46.174;11.254;2023-06-01T05:55:51;92807.94;;;12.95
79228;BMP280;68658;46.174;11.254;2023-06-01T05:58:16;92809.28;;;13.07
79228;BMP280;68658;46.174;11.254;2023-06-01T06:00:42;92802.91;;;13.21
79228;BMP280;68658;46.174;11.254;2023-06-01T06:03:07;92805.00;;;13.28
79228;BMP280;68658;46.174;11.254;2023-06-01T06:05:33;92801.59;;;13.33
79228;BMP280;68658;46.174;11.254;2023-06-01T06:07:59;92801.03;;;13.40
79228;BMP280;68658;46.174;11.254;2023-06-01T06:10:24;92806.31;;;13.45
79228;BMP280;68658;46.174;11.254;2023-06-01T06:12:50;92802.16;;;13.50
79228;BMP280;68658;46.174;11.254;2023-06-01T06:15:16;92804.25;;;13.57
79228;BMP280;68658;46.174;11.254;2023-06-01T06:17:42;92806.50;;;13.71
79228;BMP280;68658;46.174;11.254;2023-06-01T06:20:08;92808.41;;;13.76
79228;BMP280;68658;46.174;11.254;2023-06-01T06:22:34;92806.75;;;13.91
79228;BMP280;68658;46.174;11.254;2023-06-01T06:25:00;92799.09;;;14.06
79228;BMP280;68658;46.174;11.254;2023-06-01T06:27:25;92801.84;;;14.19
79228;BMP280;68658;46.174;11.254;2023-06-01T06:29:51;92801.22;;;14.32
79228;BMP280;68658;46.174;11.254;2023-06-01T06:32:17;92809.06;;;14.43
79228;BMP280;68658;46.174;11.254;2023-06-01T06:34:45;92810.78;;;14.59
79228;BMP280;68658;46.174;11.254;2023-06-01T06:37:11;92807.44;;;14.71
79228;BMP280;68658;46.174;11.254;2023-06-01T06:39:37;92809.59;;;14.72
79228;BMP280;68658;46.174;11.254;2023-06-01T06:42:05;92802.56;;;14.75
79228;BMP280;68658;46.174;11.254;2023-06-01T06:44:31;92801.34;;;14.76
79228;BMP280;68658;46.174;11.254;2023-06-01T06:47:00;92805.72;;;14.73
79228;BMP280;68658;46.174;11.254;2023-06-01T06:49:26;92799.38;;;14.76
79228;BMP280;68658;46.174;11.254;2023-06-01T06:51:51;92807.63;;;14.91
79228;BMP280;68658;46.174;11.254;2023-06-01T06:54:17;92807.84;;;14.93
79228;BMP280;68658;46.174;11.254;2023-06-01T06:56:42;92804.03;;;14.89
79228;BMP280;68658;46.174;11.254;2023-06-01T06:59:08;92799.78;;;14.99
79228;BMP280;68658;46.174;11.254;2023-06-01T07:01:34;92806.94;;;15.04
79228;BMP280;68658;46.174;11.254;2023-06-01T07:04:05;92808.59;;;15.07
79228;BMP280;68658;46.174;11.254;2023-06-01T07:06:31;92802.47;;;15.12
79228;BMP280;68658;46.174;11.254;2023-06-01T07:08:58;92795.00;;;15.10
79228;BMP280;68658;46.174;11.254;2023-06-01T07:11:24;92802.75;;;15.27
79228;BMP280;68658;46.174;11.254;2023-06-01T07:13:54;92796.50;;;15.37
79228;BMP280;68658;46.174;11.254;2023-06-01T07:16:23;92798.06;;;15.46
79228;BMP280;68658;46.174;11.254;2023-06-01T07:18:48;92793.16;;;15.49
79228;BMP280;68658;46.174;11.254;2023-06-01T07:21:14;92791.94;;;15.63
79228;BMP280;68658;46.174;11.254;2023-06-01T07:23:41;92791.09;;;15.68
79228;BMP280;68658;46.174;11.254;2023-06-01T07:26:08;92792.84;;;15.79
79228;BMP280;68658;46.174;11.254;2023-06-01T07:28:33;92787.03;;;15.80
79228;BMP280;68658;46.174;11.254;2023-06-01T07:31:00;92784.47;;;15.88
79228;BMP280;68658;46.174;11.254;2023-06-01T07:33:25;92789.97;;;16.03
79228;BMP280;68658;46.174;11.254;2023-06-01T07:35:51;92786.00;;;15.96
79228;BMP280;68658;46.174;11.254;2023-06-01T07:38:19;92786.09;;;16.04
79228;BMP280;68658;46.174;11.254;2023-06-01T07:40:46;92787.00;;;16.06
79228;BMP280;68658;46.174;11.254;2023-06-01T07:43:11;92784.84;;;16.30
79228;BMP280;68658;46.174;11.254;2023-06-01T07:45:39;92789.03;;;16.39
79228;BMP280;68658;46.174;11.254;2023-06-01T07:48:04;92783.91;;;16.41
79228;BMP280;68658;46.174;11.254;2023-06-01T07:50:30;92786.13;;;16.50
79228;BMP280;68658;46.174;11.254;2023-06-01T07:52:57;92774.88;;;16.44
79228;BMP280;68658;46.174;11.254;2023-06-01T07:55:23;92776.47;;;16.60
79228;BMP280;68658;46.174;11.254;2023-06-01T07:57:49;92778.56;;;16.74
79228;BMP280;68658;46.174;11.254;2023-06-01T08:00:15;92768.81;;;16.77
79228;BMP280;68658;46.174;11.254;2023-06-01T08:02:43;92771.28;;;16.75
79228;BMP280;68658;46.174;11.254;2023-06-01T08:05:09;92768.38;;;17.06
79228;BMP280;68658;46.174;11.254;2023-06-01T08:07:36;92765.00;;;17.05
79228;BMP280;68658;46.174;11.254;2023-06-01T08:10:06;92756.22;;;16.98
79228;BMP280;68658;46.174;11.254;2023-06-01T08:12:34;92751.97;;;16.61
79228;BMP280;68658;46.174;11.254;2023-06-01T08:15:01;92752.53;;;16.47
79228;BMP280;68658;46.174;11.254;2023-06-01T08:17:27;92763.00;;;16.45
79228;BMP280;68658;46.174;11.254;2023-06-01T08:19:52;92758.50;;;16.40
79228;BMP280;68658;46.174;11.254;2023-06-01T08:22:19;92746.72;;;16.35
79228;BMP280;68658;46.174;11.254;2023-06-01T08:24:46;92751.94;;;16.41
79228;BMP280;68658;46.174;11.254;2023-06-01T08:27:22;92748.81;;;16.50
79228;BMP280;68658;46.174;11.254;2023-06-01T08:29:49;92751.97;;;16.61
79228;BMP280;68658;46.174;11.254;2023-06-01T08:32:15;92757.25;;;16.95
79228;BMP280;68658;46.174;11.254;2023-06-01T08:34:43;92753.56;;;17.66
79228;BMP280;68658;46.174;11.254;2023-06-01T08:37:09;92749.81;;;17.97
79228;BMP280;68658;46.174;11.254;2023-06-01T08:39:34;92744.66;;;17.99
79228;BMP280;68658;46.174;11.254;2023-06-01T08:42:08;92738.97;;;17.67
79228;BMP280;68658;46.174;11.254;2023-06-01T08:44:37;92741.31;;;17.71
79228;BMP280;68658;46.174;11.254;2023-06-01T08:47:03;92745.78;;;17.76
79228;BMP280;68658;46.174;11.254;2023-06-01T08:49:31;92745.41;;;17.72
79228;BMP280;68658;46.174;11.254;2023-06-01T08:52:06;92739.88;;;17.70
79228;BMP280;68658;46.174;11.254;2023-06-01T08:54:32;92737.25;;;17.77
79228;BMP280;68658;46.174;11.254;2023-06-01T08:57:03;92739.75;;;17.83
79228;BMP280;68658;46.174;11.254;2023-06-01T08:59:29;92745.84;;;17.90
79228;BMP280;68658;46.174;11.254;2023-06-01T09:01:57;92744.16;;;18.43
79228;BMP280;68658;46.174;11.254;2023-06-01T09:04:22;92738.38;;;19.04
79228;BMP280;68658;46.174;11.254;2023-06-01T09:06:48;92735.22;;;19.50
79228;BMP280;68658;46.174;11.254;2023-06-01T09:09:13;92724.16;;;19.32
79228;BMP280;68658;46.174;11.254;2023-06-01T09:11:39;92724.13;;;19.02
79228;BMP280;68658;46.174;11.254;2023-06-01T09:14:20;92717.00;;;18.97
79228;BMP280;68658;46.174;11.254;2023-06-01T09:16:51;92723.03;;;18.97
79228;BMP280;68658;46.174;11.254;2023-06-01T09:19:17;92724.44;;;18.83
79228;BMP280;68658;46.174;11.254;2023-06-01T09:21:59;92725.88;;;18.77
79228;BMP280;68658;46.174;11.254;2023-06-01T09:24:25;92720.56;;;18.99
79228;BMP280;68658;46.174;11.254;2023-06-01T09:26:59;92720.59;;;19.14
79228;BMP280;68658;46.174;11.254;2023-06-01T09:29:28;92711.66;;;19.19
79228;BMP280;68658;46.174;11.254;2023-06-01T09:31:54;92711.16;;;19.21
79228;BMP280;68658;46.174;11.254;2023-06-01T09:34:20;92712.03;;;19.23
79228;BMP280;68658;46.174;11.254;2023-06-01T09:36:50;92709.53;;;19.25
79228;BMP280;68658;46.174;11.254;2023-06-01T09:39:21;92708.28;;;19.34
79228;BMP280;68658;46.174;11.254;2023-06-01T09:41:58;92704.53;;;19.37
79228;BMP280;68658;46.174;11.254;2023-06-01T09:44:25;92701.66;;;19.27
79228;BMP280;68658;46.174;11.254;2023-06-01T09:46:52;92699.88;;;19.37
79228;BMP280;68658;46.174;11.254;2023-06-01T09:49:26;92699.16;;;19.51
79228;BMP280;68658;46.174;11.254;2023-06-01T09:54:32;92696.97;;;19.65
79228;BMP280;68658;46.174;11.254;2023-06-01T09:57:01;92697.31;;;19.84
79228;BMP280;68658;46.174;11.254;2023-06-01T09:59:28;92693.00;;;19.96
79228;BMP280;68658;46.174;11.254;2023-06-01T10:01:57;92687.63;;;19.96
79228;BMP280;68658;46.174;11.254;2023-06-01T10:04:27;92684.03;;;20.08
79228;BMP280;68658;46.174;11.254;2023-06-01T10:06:57;92676.53;;;20.07
79228;BMP280;68658;46.174;11.254;2023-06-01T10:09:24;92676.22;;;19.95
79228;BMP280;68658;46.174;11.254;2023-06-01T10:11:51;92673.84;;;20.07
79228;BMP280;68658;46.174;11.254;2023-06-01T10:14:22;92667.31;;;20.32
79228;BMP280;68658;46.174;11.254;2023-06-01T10:16:52;92663.25;;;20.87
79228;BMP280;68658;46.174;11.254;2023-06-01T10:19:21;92657.06;;;20.45
79228;BMP280;68658;46.174;11.254;2023-06-01T10:21:47;92669.34;;;20.48
79228;BMP280;68658;46.174;11.254;2023-06-01T10:24:22;92659.19;;;21.03
79228;BMP280;68658;46.174;11.254;2023-06-01T10:29:36;92650.72;;;21.31
79228;BMP280;68658;46.174;11.254;2023-06-01T10:32:01;92654.09;;;21.56
79228;BMP280;68658;46.174;11.254;2023-06-01T10:34:37;92650.56;;;21.46
79228;BMP280;68658;46.174;11.254;2023-06-01T10:39:32;92643.66;;;21.18
79228;BMP280;68658;46.174;11.254;2023-06-01T10:52:34;92630.59;;;22.50
79228;BMP280;68658;46.174;11.254;2023-06-01T10:57:36;92632.97;;;22.72
79228;BMP280;68658;46.174;11.254;2023-06-01T11:00:11;92621.84;;;22.50
79228;BMP280;68658;46.174;11.254;2023-06-01T11:02:58;92623.50;;;21.85
79228;BMP280;68658;46.174;11.254;2023-06-01T11:13:30;92616.25;;;22.21
79228;BMP280;68658;46.174;11.254;2023-06-01T11:21:19;92619.13;;;22.76
79228;BMP280;68658;46.174;11.254;2023-06-01T11:23:47;92603.16;;;22.87
79228;BMP280;68658;46.174;11.254;2023-06-01T11:26:18;92601.84;;;22.43
79228;BMP280;68658;46.174;11.254;2023-06-01T11:28:45;92609.03;;;22.67
79228;BMP280;68658;46.174;11.254;2023-06-01T11:31:15;92606.59;;;22.61
79228;BMP280;68658;46.174;11.254;2023-06-01T11:33:50;92602.56;;;22.79
79228;BMP280;68658;46.174;11.254;2023-06-01T11:36:21;92601.47;;;22.56
79228;BMP280;68658;46.174;11.254;2023-06-01T11:38:49;92597.78;;;22.52
79228;BMP280;68658;46.174;11.254;2023-06-01T11:41:15;92598.97;;;22.67
79228;BMP280;68658;46.174;11.254;2023-06-01T11:43:40;92598.41;;;23.05
79228;BMP280;68658;46.174;11.254;2023-06-01T11:46:07;92589.25;;;23.27
79228;BMP280;68658;46.174;11.254;2023-06-01T11:48:33;92580.63;;;23.56
79228;BMP280;68658;46.174;11.254;2023-06-01T11:51:03;92580.25;;;23.79
79228;BMP280;68658;46.174;11.254;2023-06-01T11:53:34;92581.78;;;23.72
79228;BMP280;68658;46.174;11.254;2023-06-01T11:55:59;92569.28;;;23.30
79228;BMP280;68658;46.174;11.254;2023-06-01T11:58:29;92558.19;;;23.07
79228;BMP280;68658;46.174;11.254;2023-06-01T12:00:57;92562.47;;;22.74
79228;BMP280;68658;46.174;11.254;2023-06-01T12:03:23;92567.91;;;22.57
79228;BMP280;68658;46.174;11.254;2023-06-01T12:05:49;92574.25;;;22.88
79228;BMP280;68658;46.174;11.254;2023-06-01T12:10:44;92560.19;;;23.16
79228;BMP280;68658;46.174;11.254;2023-06-01T12:13:12;92559.13;;;22.92
79228;BMP280;68658;46.174;11.254;2023-06-01T12:15:38;92562.38;;;22.91
79228;BMP280;68658;46.174;11.254;2023-06-01T12:18:04;92572.09;;;23.32
79228;BMP280;68658;46.174;11.254;2023-06-01T12:23:02;92558.38;;;23.65
79228;BMP280;68658;46.174;11.254;2023-06-01T12:25:33;92576.38;;;23.91
79228;BMP280;68658;46.174;11.254;2023-06-01T12:28:07;92567.78;;;24.51
79228;BMP280;68658;46.174;11.254;2023-06-01T12:30:34;92556.69;;;23.79
79228;BMP280;68658;46.174;11.254;2023-06-01T12:33:00;92555.00;;;23.74
79228;BMP280;68658;46.174;11.254;2023-06-01T12:35:26;92549.84;;;23.50
79228;BMP280;68658;46.174;11.254;2023-06-01T12:38:08;92549.81;;;23.12
79228;BMP280;68658;46.174;11.254;2023-06-01T12:40:36;92549.00;;;23.29
79228;BMP280;68658;46.174;11.254;2023-06-01T12:43:02;92557.66;;;23.37
79228;BMP280;68658;46.174;11.254;2023-06-01T12:45:37;92562.91;;;23.44
79228;BMP280;68658;46.174;11.254;2023-06-01T12:48:04;92567.88;;;23.66
79228;BMP280;68658;46.174;11.254;2023-06-01T12:50:30;92562.06;;;23.23
79228;BMP280;68658;46.174;11.254;2023-06-01T12:52:56;92564.44;;;23.19
79228;BMP280;68658;46.174;11.254;2023-06-01T12:55:21;92575.91;;;23.10
79228;BMP280;68658;46.174;11.254;2023-06-01T12:57:54;92578.59;;;23.10
79228;BMP280;68658;46.174;11.254;2023-06-01T13:00:19;92571.53;;;24.18
79228;BMP280;68658;46.174;11.254;2023-06-01T13:02:46;92564.56;;;24.34
79228;BMP280;68658;46.174;11.254;2023-06-01T13:05:16;92554.59;;;24.46
79228;BMP280;68658;46.174;11.254;2023-06-01T13:07:45;92547.59;;;24.62
79228;BMP280;68658;46.174;11.254;2023-06-01T13:10:13;92546.94;;;24.82
79228;BMP280;68658;46.174;11.254;2023-06-01T13:12:39;92539.22;;;24.88
79228;BMP280;68658;46.174;11.254;2023-06-01T13:15:11;92529.69;;;25.38
79228;BMP280;68658;46.174;11.254;2023-06-01T13:17:37;92530.06;;;25.97
79228;BMP280;68658;46.174;11.254;2023-06-01T13:20:03;92529.66;;;26.24
79228;BMP280;68658;46.174;11.254;2023-06-01T13:22:31;92532.50;;;26.26
79228;BMP280;68658;46.174;11.254;2023-06-01T13:24:57;92529.53;;;26.54
79228;BMP280;68658;46.174;11.254;2023-06-01T13:27:23;92520.81;;;26.78
79228;BMP280;68658;46.174;11.254;2023-06-01T13:29:49;92513.50;;;26.92
79228;BMP280;68658;46.174;11.254;2023-06-01T13:32:17;92518.72;;;26.77
79228;BMP280;68658;46.174;11.254;2023-06-01T13:34:42;92505.16;;;26.43
79228;BMP280;68658;46.174;11.254;2023-06-01T13:37:08;92506.69;;;26.46
79228;BMP280;68658;46.174;11.254;2023-06-01T13:39:34;92516.25;;;26.14
79228;BMP280;68658;46.174;11.254;2023-06-01T13:41:59;92509.63;;;26.50
79228;BMP280;68658;46.174;11.254;2023-06-01T13:44:26;92503.13;;;27.23
79228;BMP280;68658;46.174;11.254;2023-06-01T13:46:51;92502.91;;;26.96
79228;BMP280;68658;46.174;11.254;2023-06-01T13:49:17;92499.94;;;25.80
79228;BMP280;68658;46.174;11.254;2023-06-01T13:51:42;92499.19;;;25.68
79228;BMP280;68658;46.174;11.254;2023-06-01T13:54:08;92501.09;;;26.21
79228;BMP280;68658;46.174;11.254;2023-06-01T13:56:35;92495.63;;;26.64
79228;BMP280;68658;46.174;11.254;2023-06-01T13:59:01;92487.78;;;27.39
79228;BMP280;68658;46.174;11.254;2023-06-01T14:01:26;92482.13;;;27.35
79228;BMP280;68658;46.174;11.254;2023-06-01T14:03:53;92477.75;;;25.93
79228;BMP280;68658;46.174;11.254;2023-06-01T14:06:18;92482.16;;;26.21
79228;BMP280;68658;46.174;11.254;2023-06-01T14:08:44;92475.59;;;27.04
79228;BMP280;68658;46.174;11.254;2023-06-01T14:11:10;92485.00;;;26.34
79228;BMP280;68658;46.174;11.254;2023-06-01T14:13:35;92486.69;;;25.63
79228;BMP280;68658;46.174;11.254;2023-06-01T14:16:01;92489.28;;;24.98
79228;BMP280;68658;46.174;11.254;2023-06-01T14:18:29;92493.03;;;25.68
79228;BMP280;68658;46.174;11.254;2023-06-01T14:20:55;92494.16;;;26.18
79228;BMP280;68658;46.174;11.254;2023-06-01T14:23:20;92480.31;;;27.03
79228;BMP280;68658;46.174;11.254;2023-06-01T14:25:46;92497.88;;;26.68
79228;BMP280;68658;46.174;11.254;2023-06-01T14:28:11;92489.13;;;27.15
79228;BMP280;68658;46.174;11.254;2023-06-01T14:30:37;92484.88;;;27.60
79228;BMP280;68658;46.174;11.254;2023-06-01T14:33:06;92482.59;;;28.17
79228;BMP280;68658;46.174;11.254;2023-06-01T14:35:31;92481.72;;;28.13
79228;BMP280;68658;46.174;11.254;2023-06-01T14:37:58;92478.63;;;27.69
79228;BMP280;68658;46.174;11.254;2023-06-01T14:40:24;92472.66;;;28.09
79228;BMP280;68658;46.174;11.254;2023-06-01T14:42:49;92469.28;;;27.97
79228;BMP280;68658;46.174;11.254;2023-06-01T14:45:15;92464.16;;;27.89
79228;BMP280;68658;46.174;11.254;2023-06-01T14:47:41;92459.16;;;27.36